Time,TemperatureF,DewpointF,PressureIn,WindDirection,WindDirectionDegrees,WindSpeedMPH,WindSpeedGustMPH,Humidity,HourlyPrecipIn,Conditions,Clouds,dailyrainin,SoftwareType,DateUTC
2013-01-15 00:05:00,68.2,63.2,29.99,SE,135,5.3,-999.0,84,-99.99,,,0.00,Acu-Link.com,2013-01-15 05:05:00,
2013-01-15 00:21:00,68.0,63.3,30.00,ESE,112,2.7,-999.0,85,-99.99,,,0.00,Acu-Link.com,2013-01-15 05:21:00,
2013-01-15 00:36:00,67.8,63.1,30.00,ESE,112,2.7,-999.0,85,-99.99,,,0.00,Acu-Link.com,2013-01-15 05:36:00,
2013-01-15 00:51:00,67.5,62.8,30.00,ESE,112,3.7,-999.0,85,-99.99,,,0.00,Acu-Link.com,2013-01-15 05:51:00,
2013-01-15 01:07:00,67.3,63.0,29.99,SSE,157,2.7,-999.0,86,-99.99,,,0.00,Acu-Link.com,2013-01-15 06:07:00,
2013-01-15 01:22:00,67.1,62.8,29.99,SE,135,3.2,-999.0,86,-99.99,,,0.00,Acu-Link.com,2013-01-15 06:22:00,
2013-01-15 01:37:00,67.1,62.8,30.00,SSE,157,4.7,-999.0,86,-99.99,,,0.00,Acu-Link.com,2013-01-15 06:37:00,
2013-01-15 01:53:00,66.9,62.6,30.00,ESE,112,3.7,-999.0,86,-99.99,,,0.00,Acu-Link.com,2013-01-15 06:53:00,
2013-01-15 02:08:00,66.6,62.6,29.99,SE,135,3.7,-999.0,87,-99.99,,,0.00,Acu-Link.com,2013-01-15 07:08:00,
2013-01-15 02:23:00,66.4,62.4,29.99,SE,135,0.0,-999.0,87,-99.99,,,0.00,Acu-Link.com,2013-01-15 07:23:00,
2013-01-15 02:39:00,65.7,62.0,29.99,SE,135,0.0,-999.0,88,-99.99,,,0.00,Acu-Link.com,2013-01-15 07:39:00,
2013-01-15 02:54:00,64.9,61.3,29.98,SW,225,0.0,-999.0,88,-99.99,,,0.00,Acu-Link.com,2013-01-15 07:54:00,
2013-01-15 03:09:00,64.4,60.8,29.98,SW,225,0.0,-999.0,88,-99.99,,,0.00,Acu-Link.com,2013-01-15 08:09:00,
2013-01-15 03:25:00,64.2,60.9,29.98,SW,225,0.0,-999.0,89,-99.99,,,0.00,Acu-Link.com,2013-01-15 08:25:00,
2013-01-15 03:40:00,64.0,60.7,29.98,SSW,202,0.0,-999.0,89,-99.99,,,0.00,Acu-Link.com,2013-01-15 08:40:00,
2013-01-15 03:55:00,63.9,60.6,29.97,SW,225,0.0,-999.0,89,-99.99,,,0.00,Acu-Link.com,2013-01-15 08:55:00,
2013-01-15 04:13:00,63.7,60.7,29.98,WSW,247,0.0,-999.0,90,-99.99,,,0.00,Acu-Link.com,2013-01-15 09:13:00,
2013-01-15 04:29:00,63.3,60.3,29.97,SSW,202,0.0,-999.0,90,-99.99,,,0.00,Acu-Link.com,2013-01-15 09:29:00,
2013-01-15 04:44:00,63.0,60.0,29.97,SW,225,0.0,-999.0,90,-99.99,,,0.00,Acu-Link.com,2013-01-15 09:44:00,
2013-01-15 04:59:00,63.3,60.6,29.97,SSW,202,0.0,-999.0,91,-99.99,,,0.00,Acu-Link.com,2013-01-15 09:59:00,
2013-01-15 05:14:00,63.1,60.4,29.97,SW,225,0.0,-999.0,91,-99.99,,,0.00,Acu-Link.com,2013-01-15 10:14:00,
2013-01-15 05:29:00,63.3,60.6,29.97,WSW,247,0.0,-999.0,91,-99.99,,,0.00,Acu-Link.com,2013-01-15 10:29:00,
2013-01-15 05:45:00,63.7,61.0,29.97,North,0,0.0,-999.0,91,-99.99,,,0.00,Acu-Link.com,2013-01-15 10:45:00,
2013-01-15 06:00:00,64.2,61.5,29.97,NW,315,1.7,-999.0,91,-99.99,,,0.00,Acu-Link.com,2013-01-15 11:00:00,
2013-01-15 06:15:00,64.4,61.7,29.97,WNW,292,2.2,-999.0,91,-99.99,,,0.00,Acu-Link.com,2013-01-15 11:15:00,
2013-01-15 06:31:00,64.8,62.4,29.98,NNW,337,1.1,-999.0,92,-99.99,,,0.00,Acu-Link.com,2013-01-15 11:31:00,
2013-01-15 06:46:00,64.8,62.4,29.98,NW,315,2.2,-999.0,92,-99.99,,,0.00,Acu-Link.com,2013-01-15 11:46:00,
2013-01-15 07:01:00,64.9,62.5,29.98,NNE,22,2.2,-999.0,92,-99.99,,,0.00,Acu-Link.com,2013-01-15 12:01:00,
2013-01-15 07:17:00,65.1,62.7,29.99,NNE,22,1.7,-999.0,92,-99.99,,,0.00,Acu-Link.com,2013-01-15 12:17:00,
2013-01-15 07:32:00,65.5,63.1,29.99,NNE,22,1.7,-999.0,92,-99.99,,,0.00,Acu-Link.com,2013-01-15 12:32:00,
2013-01-15 07:47:00,65.7,63.3,29.99,SSE,157,0.0,-999.0,92,-99.99,,,0.00,Acu-Link.com,2013-01-15 12:47:00,
2013-01-15 08:02:00,65.8,63.4,30.00,ESE,112,1.7,-999.0,92,-99.99,,,0.00,Acu-Link.com,2013-01-15 13:02:00,
2013-01-15 08:18:00,66.4,64.0,30.00,SSE,157,0.0,-999.0,92,-99.99,,,0.00,Acu-Link.com,2013-01-15 13:18:00,
2013-01-15 08:33:00,66.9,64.5,30.00,ESE,112,2.7,-999.0,92,-99.99,,,0.00,Acu-Link.com,2013-01-15 13:33:00,
2013-01-15 08:48:00,67.6,65.2,30.00,East,90,1.7,-999.0,92,-99.99,,,0.00,Acu-Link.com,2013-01-15 13:48:00,
2013-01-15 09:04:00,68.9,66.5,30.00,ESE,112,1.7,-999.0,92,-99.99,,,0.00,Acu-Link.com,2013-01-15 14:04:00,
2013-01-15 09:19:00,72.1,66.6,29.99,SE,135,2.7,-999.0,83,-99.99,,,0.00,Acu-Link.com,2013-01-15 14:19:00,
2013-01-15 09:34:00,72.7,66.2,29.99,ESE,112,3.7,-999.0,80,-99.99,,,0.00,Acu-Link.com,2013-01-15 14:34:00,
2013-01-15 09:49:00,73.8,65.4,29.99,ESE,112,4.7,-999.0,75,-99.99,,,0.00,Acu-Link.com,2013-01-15 14:49:00,
2013-01-15 10:05:00,75.2,65.5,30.00,East,90,6.3,-999.0,72,-99.99,,,0.00,Acu-Link.com,2013-01-15 15:05:00,
2013-01-15 10:20:00,75.4,65.3,30.00,SE,135,4.2,-999.0,71,-99.99,,,0.00,Acu-Link.com,2013-01-15 15:20:00,
2013-01-15 10:35:00,75.7,65.2,30.00,ESE,112,8.9,-999.0,70,-99.99,,,0.00,Acu-Link.com,2013-01-15 15:35:00,
2013-01-15 10:50:00,76.8,65.4,29.99,ESE,112,6.8,-999.0,68,-99.99,,,0.00,Acu-Link.com,2013-01-15 15:50:00,
2013-01-15 11:06:00,77.4,65.6,29.98,ESE,112,4.7,-999.0,67,-99.99,,,0.00,Acu-Link.com,2013-01-15 16:06:00,
2013-01-15 11:21:00,78.4,64.7,29.98,ESE,112,6.3,-999.0,63,-99.99,,,0.00,Acu-Link.com,2013-01-15 16:21:00,
2013-01-15 11:36:00,78.4,64.7,29.97,East,90,5.3,-999.0,63,-99.99,,,0.00,Acu-Link.com,2013-01-15 16:36:00,
2013-01-15 11:52:00,79.3,63.7,29.96,ESE,112,2.7,-999.0,59,-99.99,,,0.00,Acu-Link.com,2013-01-15 16:52:00,
2013-01-15 12:07:00,79.2,63.1,29.95,ESE,112,4.7,-999.0,58,-99.99,,,0.00,Acu-Link.com,2013-01-15 17:07:00,
2013-01-15 12:22:00,78.3,61.8,29.95,WSW,247,2.2,-999.0,57,-99.99,,,0.00,Acu-Link.com,2013-01-15 17:22:00,
2013-01-15 12:38:00,79.0,61.9,29.93,ESE,112,3.7,-999.0,56,-99.99,,,0.00,Acu-Link.com,2013-01-15 17:38:00,
2013-01-15 12:53:00,79.3,62.2,29.93,SE,135,2.2,-999.0,56,-99.99,,,0.00,Acu-Link.com,2013-01-15 17:53:00,
2013-01-15 13:08:00,81.3,62.5,29.92,ESE,112,5.3,-999.0,53,-99.99,,,0.00,Acu-Link.com,2013-01-15 18:08:00,
2013-01-15 13:23:00,79.0,61.4,29.92,ESE,112,5.3,-999.0,55,-99.99,,,0.00,Acu-Link.com,2013-01-15 18:23:00,
2013-01-15 13:39:00,80.4,62.2,29.91,ESE,112,6.3,-999.0,54,-99.99,,,0.00,Acu-Link.com,2013-01-15 18:39:00,
2013-01-15 13:54:00,78.4,61.9,29.91,ESE,112,4.2,-999.0,57,-99.99,,,0.00,Acu-Link.com,2013-01-15 18:54:00,
2013-01-15 14:09:00,80.1,62.5,29.91,ESE,112,3.2,-999.0,55,-99.99,,,0.00,Acu-Link.com,2013-01-15 19:09:00,
2013-01-15 14:25:00,79.2,62.6,29.91,ESE,112,1.1,-999.0,57,-99.99,,,0.00,Acu-Link.com,2013-01-15 19:25:00,
2013-01-15 14:40:00,80.1,63.0,29.90,ESE,112,6.8,-999.0,56,-99.99,,,0.00,Acu-Link.com,2013-01-15 19:40:00,
2013-01-15 14:55:00,80.2,63.1,29.90,ESE,112,6.3,-999.0,56,-99.99,,,0.00,Acu-Link.com,2013-01-15 19:55:00,
2013-01-15 15:11:00,79.9,62.8,29.90,South,180,3.2,-999.0,56,-99.99,,,0.00,Acu-Link.com,2013-01-15 20:11:00,
2013-01-15 15:26:00,79.5,62.4,29.90,ESE,112,1.7,-999.0,56,-99.99,,,0.00,Acu-Link.com,2013-01-15 20:26:00,
2013-01-15 15:41:00,79.7,62.6,29.90,SSE,157,3.2,-999.0,56,-99.99,,,0.00,Acu-Link.com,2013-01-15 20:41:00,
2013-01-15 15:57:00,80.2,62.5,29.90,South,180,3.7,-999.0,55,-99.99,,,0.00,Acu-Link.com,2013-01-15 20:57:00,
2013-01-15 16:12:00,80.1,62.5,29.90,ESE,112,5.3,-999.0,55,-99.99,,,0.00,Acu-Link.com,2013-01-15 21:12:00,
2013-01-15 16:27:00,79.9,62.8,29.90,ESE,112,2.7,-999.0,56,-99.99,,,0.00,Acu-Link.com,2013-01-15 21:27:00,
2013-01-15 16:43:00,79.3,61.7,29.91,SE,135,5.3,-999.0,55,-99.99,,,0.00,Acu-Link.com,2013-01-15 21:43:00,
2013-01-15 16:58:00,78.6,62.1,29.91,SSW,202,1.7,-999.0,57,-99.99,,,0.00,Acu-Link.com,2013-01-15 21:58:00,
2013-01-15 17:13:00,78.1,62.1,29.91,SSE,157,2.2,-999.0,58,-99.99,,,0.00,Acu-Link.com,2013-01-15 22:13:00,
2013-01-15 17:29:00,77.5,62.0,29.90,SSE,157,2.2,-999.0,59,-99.99,,,0.00,Acu-Link.com,2013-01-15 22:29:00,
2013-01-15 17:44:00,76.6,61.7,29.91,ESE,112,2.7,-999.0,60,-99.99,,,0.00,Acu-Link.com,2013-01-15 22:44:00,
2013-01-15 17:59:00,75.9,61.5,29.91,ESE,112,2.7,-999.0,61,-99.99,,,0.00,Acu-Link.com,2013-01-15 22:59:00,
2013-01-15 18:15:00,75.0,61.5,29.91,ESE,112,2.7,-999.0,63,-99.99,,,0.00,Acu-Link.com,2013-01-15 23:15:00,
2013-01-15 18:30:00,74.5,61.5,29.91,ESE,112,2.2,-999.0,64,-99.99,,,0.00,Acu-Link.com,2013-01-15 23:30:00,
2013-01-15 18:45:00,74.1,61.6,29.91,ESE,112,2.7,-999.0,65,-99.99,,,0.00,Acu-Link.com,2013-01-15 23:45:00,
2013-01-15 19:00:00,73.8,61.3,29.92,ESE,112,2.2,-999.0,65,-99.99,,,0.00,Acu-Link.com,2013-01-16 00:00:00,
2013-01-15 19:16:00,73.9,62.2,29.92,ESE,112,3.7,-999.0,67,-99.99,,,0.00,Acu-Link.com,2013-01-16 00:16:00,
2013-01-15 19:31:00,73.4,62.6,29.92,ESE,112,6.8,-999.0,69,-99.99,,,0.00,Acu-Link.com,2013-01-16 00:31:00,
2013-01-15 19:47:00,72.9,62.9,29.92,SE,135,5.3,-999.0,71,-99.99,,,0.00,Acu-Link.com,2013-01-16 00:47:00,
2013-01-15 20:02:00,72.7,63.5,29.92,ESE,112,8.9,-999.0,73,-99.99,,,0.00,Acu-Link.com,2013-01-16 01:02:00,
2013-01-15 20:17:00,72.1,63.3,29.92,ESE,112,6.8,-999.0,74,-99.99,,,0.00,Acu-Link.com,2013-01-16 01:17:00,
2013-01-15 20:33:00,71.8,63.4,29.91,ESE,112,6.8,-999.0,75,-99.99,,,0.00,Acu-Link.com,2013-01-16 01:33:00,
2013-01-15 20:48:00,71.4,63.4,29.92,ESE,112,6.8,-999.0,76,-99.99,,,0.00,Acu-Link.com,2013-01-16 01:48:00,
2013-01-15 21:03:00,70.7,63.1,29.91,ESE,112,5.8,-999.0,77,-99.99,,,0.00,Acu-Link.com,2013-01-16 02:03:00,
2013-01-15 21:18:00,70.2,63.0,29.92,ESE,112,4.7,-999.0,78,-99.99,,,0.00,Acu-Link.com,2013-01-16 02:18:00,
2013-01-15 21:34:00,69.8,63.0,29.92,ESE,112,4.2,-999.0,79,-99.99,,,0.00,Acu-Link.com,2013-01-16 02:34:00,
2013-01-15 21:49:00,69.3,62.9,29.91,ESE,112,3.2,-999.0,80,-99.99,,,0.00,Acu-Link.com,2013-01-16 02:49:00,
2013-01-15 22:04:00,68.9,62.5,29.92,ESE,112,4.2,-999.0,80,-99.99,,,0.00,Acu-Link.com,2013-01-16 03:04:00,
2013-01-15 22:20:00,68.4,62.3,29.92,South,180,1.7,-999.0,81,-99.99,,,0.00,Acu-Link.com,2013-01-16 03:20:00,
2013-01-15 22:35:00,67.8,62.1,29.92,ESE,112,0.0,-999.0,82,-99.99,,,0.00,Acu-Link.com,2013-01-16 03:35:00,
2013-01-15 22:50:00,67.3,62.0,29.93,South,180,0.0,-999.0,83,-99.99,,,0.00,Acu-Link.com,2013-01-16 03:50:00,
2013-01-15 23:06:00,66.9,61.6,29.93,SSE,157,0.0,-999.0,83,-99.99,,,0.00,Acu-Link.com,2013-01-16 04:06:00,
2013-01-15 23:21:00,67.1,62.4,29.93,WSW,247,0.0,-999.0,85,-99.99,,,0.00,Acu-Link.com,2013-01-16 04:21:00,
2013-01-15 23:36:00,67.1,62.4,29.93,WSW,247,0.0,-999.0,85,-99.99,,,0.00,Acu-Link.com,2013-01-16 04:36:00,
2013-01-15 23:51:00,67.1,62.4,29.92,South,180,2.7,-999.0,85,-99.99,,,0.00,Acu-Link.com,2013-01-16 04:51:00,